createdAt,value
2023-03-26T00:03:02.324Z,71.28
2023-03-26T00:06:12.931Z,71.81
2023-03-26T00:09:17.008Z,73.24
2023-03-26T00:12:20.137Z,72.62
2023-03-26T00:15:22.925Z,73.58
2023-03-26T00:18:30.892Z,73.34
2023-03-26T00:21:34.218Z,72.46
2023-03-26T00:24:37.764Z,74.42
2023-03-26T00:27:41.993Z,75.52
2023-03-26T00:30:45.127Z,75.34
2023-03-26T00:33:47.980Z,75.13
2023-03-26T00:36:54.930Z,76.81
2023-03-26T00:40:09.882Z,75.56
2023-03-26T00:43:19.455Z,74.52
2023-03-26T00:46:23.581Z,76.18
2023-03-26T00:49:27.003Z,76.82
2023-03-26T00:52:29.937Z,75.73
2023-03-26T00:55:33.009Z,76.42
2023-03-26T00:58:35.986Z,77.81
2023-03-26T01:01:40.012Z,78.43
2023-03-26T01:04:55.754Z,77.46
2023-03-26T01:08:16.606Z,76.87
2023-03-26T01:11:26.208Z,77.79
2023-03-26T01:14:29.958Z,77.41
2023-03-26T01:17:34.508Z,78.28
2023-03-26T01:20:47.107Z,77.82
2023-03-26T01:24:00.402Z,77.47
2023-03-26T01:27:21.094Z,77.65
2023-03-26T01:30:27.890Z,77.59
2023-03-26T01:33:44.095Z,77.82
2023-03-26T01:37:13.530Z,78.57
2023-03-26T01:40:43.152Z,78.77
2023-03-26T01:44:00.805Z,78.46
2023-03-26T01:47:06.190Z,77.87
2023-03-26T01:50:09.796Z,77.97
2023-03-26T01:53:14.615Z,77.76
2023-03-26T01:56:39.259Z,78.30
2023-03-26T02:00:07.212Z,79.54
2023-03-26T02:03:45.268Z,80.56
2023-03-26T02:07:05.914Z,80.46
2023-03-26T02:10:16.646Z,81.31
2023-03-26T02:13:21.169Z,81.65
2023-03-26T02:16:24.029Z,82.40
2023-03-26T02:19:27.246Z,81.32
2023-03-26T02:22:30.136Z,80.74
2023-03-26T02:25:35.467Z,79.64
2023-03-26T02:28:38.602Z,81.46
2023-03-26T02:31:41.952Z,80.57
2023-03-26T02:34:44.846Z,80.42
2023-03-26T02:37:51.121Z,79.34
2023-03-26T02:40:55.530Z,79.18
2023-03-26T02:44:00.474Z,80.10
2023-03-26T02:47:05.068Z,78.87
2023-03-26T02:50:12.313Z,79.75
2023-03-26T02:53:19.596Z,81.02
2023-03-26T02:56:23.832Z,80.75
2023-03-26T02:59:28.581Z,81.21
2023-03-26T03:02:32.640Z,81.09
2023-03-26T03:05:38.309Z,80.59
2023-03-26T03:08:41.927Z,81.19
2023-03-26T03:11:45.955Z,81.84
2023-03-26T03:14:49.219Z,80.32
2023-03-26T03:17:52.076Z,80.86
2023-03-26T03:20:55.352Z,81.77
2023-03-26T03:24:00.254Z,81.21
2023-03-26T03:27:04.876Z,81.18
2023-03-26T03:30:09.476Z,82.09
2023-03-26T03:33:19.399Z,81.86
2023-03-26T03:36:23.521Z,81.27
2023-03-26T03:39:27.109Z,81.00
2023-03-26T03:42:30.268Z,82.35
2023-03-26T03:45:34.274Z,81.90
2023-03-26T03:48:40.880Z,81.58
2023-03-26T03:51:44.372Z,82.94
2023-03-26T03:54:47.399Z,81.59
2023-03-26T03:57:52.753Z,81.47
2023-03-26T04:01:03.198Z,81.97
2023-03-26T04:04:08.254Z,82.21
2023-03-26T04:07:13.744Z,81.28
2023-03-26T04:10:17.880Z,82.10
2023-03-26T04:13:23.618Z,81.99
2023-03-26T04:16:27.706Z,81.51
2023-03-26T04:19:31.218Z,82.17
2023-03-26T04:22:34.720Z,82.37
2023-03-26T04:25:39.597Z,81.06
2023-03-26T04:28:49.179Z,79.71
2023-03-26T04:31:58.878Z,79.28
2023-03-26T04:35:07.319Z,80.10
2023-03-26T04:38:11.474Z,79.37
2023-03-26T04:41:16.045Z,79.55
2023-03-26T04:44:22.599Z,79.54
2023-03-26T04:47:26.208Z,78.36
2023-03-26T04:50:29.093Z,78.06
2023-03-26T04:53:32.325Z,77.68
2023-03-26T04:57:08.939Z,77.85
2023-03-26T05:00:16.752Z,77.16
2023-03-26T05:03:21.281Z,76.67
2023-03-26T05:06:34.496Z,76.59
2023-03-26T05:09:39.762Z,76.32
2023-03-26T05:12:43.896Z,75.65
2023-03-26T05:15:47.898Z,75.29
2023-03-26T05:18:51.881Z,74.81
2023-03-26T05:21:55.141Z,75.78
2023-03-26T05:24:58.490Z,76.05
2023-03-26T05:28:02.212Z,74.40
2023-03-26T05:31:07.281Z,73.37
2023-03-26T05:34:11.182Z,71.50
2023-03-26T05:37:14.460Z,70.13
2023-03-26T05:40:18.259Z,67.96
2023-03-26T05:43:21.801Z,66.31
2023-03-26T05:46:25.042Z,66.27
2023-03-26T05:49:28.301Z,64.77
2023-03-26T05:52:31.118Z,65.44
2023-03-26T05:55:46.023Z,64.68
2023-03-26T05:58:59.901Z,64.87
2023-03-26T06:02:03.742Z,65.84
2023-03-26T06:05:08.272Z,65.91
2023-03-26T06:08:11.688Z,65.70
2023-03-26T06:11:16.168Z,67.18
2023-03-26T06:14:19.135Z,67.30
2023-03-26T06:17:24.648Z,67.40
2023-03-26T06:20:28.986Z,67.28
2023-03-26T06:23:32.902Z,67.16
2023-03-26T06:26:36.648Z,66.97
2023-03-26T06:29:40.846Z,67.33
2023-03-26T06:32:45.643Z,67.72
2023-03-26T06:35:49.139Z,66.67
2023-03-26T06:38:52.293Z,65.25
2023-03-26T06:41:55.768Z,63.98
2023-03-26T06:44:58.979Z,62.96
2023-03-26T06:48:05.630Z,61.34
2023-03-26T06:51:11.341Z,59.44
2023-03-26T06:54:18.318Z,60.74
2023-03-26T06:57:21.749Z,59.86
2023-03-26T07:00:27.866Z,61.16
2023-03-26T07:03:37.534Z,60.73
2023-03-26T07:06:49.978Z,58.61
2023-03-26T07:10:02.392Z,59.47
2023-03-26T07:13:09.434Z,60.49
2023-03-26T07:16:14.286Z,62.29
2023-03-26T07:19:18.424Z,63.36
2023-03-26T07:22:24.149Z,63.68
2023-03-26T07:25:30.296Z,63.44
2023-03-26T07:28:42.180Z,63.26
2023-03-26T07:32:39.876Z,63.18
2023-03-26T07:35:59.767Z,63.41
2023-03-26T07:39:23.074Z,63.61
2023-03-26T07:42:45.139Z,63.77
2023-03-26T07:45:50.000Z,63.64
2023-03-26T07:48:55.273Z,63.69
2023-03-26T07:51:58.999Z,64.04
2023-03-26T07:55:03.703Z,64.49
2023-03-26T07:58:35.571Z,64.08
2023-03-26T08:01:56.369Z,64.09
2023-03-26T08:05:20.000Z,64.04
2023-03-26T08:08:27.368Z,63.98
2023-03-26T08:11:47.676Z,64.01
2023-03-26T08:15:09.066Z,63.89
2023-03-26T08:18:22.150Z,63.65
2023-03-26T08:21:34.233Z,63.91
2023-03-26T08:24:47.857Z,63.42
2023-03-26T08:28:04.480Z,63.18
2023-03-26T08:31:11.465Z,63.23
2023-03-26T08:34:14.859Z,63.26
2023-03-26T08:37:18.192Z,62.88
2023-03-26T08:40:54.081Z,62.75
2023-03-26T08:44:28.012Z,62.35
2023-03-26T08:47:30.955Z,61.70
2023-03-26T08:51:01.764Z,61.33
2023-03-26T08:54:37.440Z,60.76
2023-03-26T08:57:43.337Z,59.93
2023-03-26T09:01:19.901Z,59.64
2023-03-26T09:04:29.208Z,59.43
2023-03-26T09:07:53.619Z,56.38
2023-03-26T09:11:13.046Z,55.03
2023-03-26T09:14:36.869Z,54.46
2023-03-26T09:18:01.550Z,53.58
2023-03-26T09:21:22.637Z,54.38
2023-03-26T09:24:38.212Z,52.00
2023-03-26T09:27:56.905Z,47.68
2023-03-26T09:31:32.729Z,47.99
2023-03-26T09:34:57.659Z,46.63
2023-03-26T09:38:11.508Z,44.65
2023-03-26T09:41:16.237Z,45.56
2023-03-26T09:44:43.921Z,42.17
2023-03-26T09:47:58.668Z,42.07
2023-03-26T09:51:31.002Z,41.55
2023-03-26T09:54:37.089Z,40.48
2023-03-26T09:58:18.018Z,39.27
2023-03-26T10:01:37.864Z,37.82
2023-03-26T10:05:15.079Z,37.14
2023-03-26T10:08:59.525Z,37.96
2023-03-26T10:12:24.064Z,38.87
2023-03-26T10:15:42.276Z,37.81
2023-03-26T10:19:04.680Z,36.99
2023-03-26T10:22:10.877Z,37.87
2023-03-26T10:25:16.928Z,37.97
2023-03-26T10:28:34.333Z,38.78
2023-03-26T10:32:06.838Z,38.91
2023-03-26T10:35:41.204Z,37.28
2023-03-26T10:39:02.191Z,35.93
2023-03-26T10:42:11.243Z,34.76
2023-03-26T10:45:27.076Z,34.52
2023-03-26T10:48:35.733Z,30.97
2023-03-26T10:51:48.908Z,30.40
2023-03-26T10:55:16.645Z,28.43
2023-03-26T10:58:29.425Z,28.93
2023-03-26T11:02:29.461Z,28.41
2023-03-26T11:05:52.421Z,28.97
2023-03-26T11:09:12.548Z,27.39
2023-03-26T11:12:29.627Z,26.87
2023-03-26T11:15:52.711Z,27.21
2023-03-26T11:19:05.471Z,25.68
2023-03-26T11:22:20.616Z,26.17
2023-03-26T11:25:50.153Z,25.72
2023-03-26T11:29:31.638Z,26.59
2023-03-26T11:32:47.422Z,25.66
2023-03-26T11:35:53.274Z,25.38
2023-03-26T11:39:00.364Z,25.05
2023-03-26T11:42:16.059Z,25.20
2023-03-26T11:45:22.785Z,23.07
2023-03-26T11:48:36.322Z,24.75
2023-03-26T11:51:42.577Z,25.23
2023-03-26T11:54:48.728Z,27.42
2023-03-26T11:57:57.796Z,26.52
2023-03-26T12:01:05.830Z,25.47
2023-03-26T12:04:15.092Z,25.25
2023-03-26T12:07:25.068Z,25.99
2023-03-26T12:10:41.870Z,25.21
2023-03-26T12:13:58.399Z,24.07
2023-03-26T12:17:06.305Z,23.72
2023-03-26T12:20:32.582Z,24.30
2023-03-26T12:23:57.441Z,23.34
2023-03-26T12:27:28.692Z,23.11
2023-03-26T12:30:37.472Z,23.58
2023-03-26T12:33:40.738Z,24.23
2023-03-26T12:36:53.421Z,25.34
2023-03-26T12:40:28.103Z,24.30
2023-03-26T12:44:53.115Z,22.86
2023-03-26T12:48:00.459Z,24.18
2023-03-26T12:51:40.379Z,26.37
2023-03-26T12:54:49.631Z,27.37
2023-03-26T12:58:24.639Z,24.70
2023-03-26T13:01:46.286Z,25.95
2023-03-26T13:05:22.959Z,25.76
2023-03-26T13:08:53.987Z,27.01
2023-03-26T13:12:26.623Z,28.17
2023-03-26T13:15:45.844Z,28.17
2023-03-26T13:19:15.904Z,28.08
2023-03-26T13:22:44.415Z,27.39
2023-03-26T13:25:53.289Z,26.43
2023-03-26T13:29:18.337Z,28.16
2023-03-26T13:32:47.886Z,29.29
2023-03-26T13:36:24.546Z,29.33
2023-03-26T13:39:58.621Z,28.05
2023-03-26T13:43:14.155Z,26.93
2023-03-26T13:46:46.608Z,26.79
2023-03-26T13:50:02.147Z,27.02
2023-03-26T13:53:17.103Z,27.29
2023-03-26T13:56:30.069Z,27.28
2023-03-26T13:59:40.155Z,26.67
2023-03-26T14:02:48.797Z,26.02
2023-03-26T14:05:56.143Z,26.84
2023-03-26T14:09:07.280Z,27.70
2023-03-26T14:12:34.855Z,28.19
2023-03-26T14:15:51.043Z,29.49
2023-03-26T14:19:32.677Z,30.55
2023-03-26T14:22:41.648Z,30.33
2023-03-26T14:26:16.463Z,30.17
2023-03-26T14:29:25.876Z,29.06
2023-03-26T14:32:46.391Z,29.81
2023-03-26T14:36:31.793Z,30.88
2023-03-26T14:39:55.604Z,31.69
2023-03-26T14:43:36.120Z,31.75
2023-03-26T14:47:04.600Z,31.78
2023-03-26T14:50:31.779Z,32.46
2023-03-26T14:53:40.319Z,32.03
2023-03-26T14:57:19.846Z,31.89
2023-03-26T15:00:53.007Z,31.98
2023-03-26T15:04:32.031Z,32.70
2023-03-26T15:07:46.994Z,33.70
2023-03-26T15:11:07.077Z,33.63
2023-03-26T15:14:38.595Z,33.55
2023-03-26T15:18:00.582Z,33.30
2023-03-26T15:21:06.434Z,33.63
2023-03-26T15:24:53.152Z,32.91
2023-03-26T15:28:33.560Z,33.72
2023-03-26T15:32:04.795Z,33.99
2023-03-26T15:35:57.712Z,34.25
2023-03-26T15:39:18.704Z,34.55
2023-03-26T15:42:52.870Z,34.77
2023-03-26T15:46:12.021Z,34.67
2023-03-26T15:49:30.364Z,34.74
2023-03-26T15:52:54.227Z,35.39
2023-03-26T15:56:13.721Z,35.33
2023-03-26T15:59:37.366Z,35.62
2023-03-26T16:02:54.056Z,36.30
2023-03-26T16:06:20.397Z,36.72
2023-03-26T16:09:39.225Z,37.21
2023-03-26T16:13:20.183Z,37.61
2023-03-26T16:16:45.896Z,38.15
2023-03-26T16:20:20.491Z,38.57
2023-03-26T16:23:47.230Z,39.08
2023-03-26T16:27:16.915Z,39.40
2023-03-26T16:30:32.182Z,39.78
2023-03-26T16:34:00.702Z,40.27
2023-03-26T16:37:09.781Z,40.59
2023-03-26T16:40:32.690Z,41.04
2023-03-26T16:44:17.401Z,41.41
2023-03-26T16:47:40.646Z,42.19
2023-03-26T16:50:49.882Z,42.72
2023-03-26T16:54:10.131Z,42.93
2023-03-26T16:57:37.312Z,42.97
2023-03-26T17:01:10.188Z,43.03
2023-03-26T17:04:24.244Z,43.27
2023-03-26T17:07:43.935Z,43.73
2023-03-26T17:11:18.981Z,44.18
2023-03-26T17:14:49.972Z,44.00
2023-03-26T17:18:20.171Z,43.78
2023-03-26T17:21:53.932Z,44.08
2023-03-26T17:25:04.744Z,44.10
2023-03-26T17:28:32.968Z,44.14
2023-03-26T17:32:12.807Z,44.44
2023-03-26T17:35:17.505Z,44.56
2023-03-26T17:38:28.814Z,44.59
2023-03-26T17:41:55.452Z,44.78
2023-03-26T17:45:22.896Z,44.97
2023-03-26T17:48:30.873Z,45.25
2023-03-26T17:51:38.731Z,45.39
2023-03-26T17:54:52.896Z,45.59
2023-03-26T17:58:00.106Z,45.91
2023-03-26T18:01:23.061Z,46.33
2023-03-26T18:04:40.087Z,46.45
2023-03-26T18:08:05.166Z,46.66
2023-03-26T18:11:29.013Z,46.88
2023-03-26T18:15:13.653Z,47.10
2023-03-26T18:18:32.052Z,47.44
2023-03-26T18:21:38.923Z,47.58
2023-03-26T18:24:46.021Z,47.72
2023-03-26T18:27:51.299Z,48.04
2023-03-26T18:30:55.475Z,48.27
2023-03-26T18:34:14.237Z,48.39
2023-03-26T18:37:39.602Z,48.47
2023-03-26T18:40:46.401Z,48.71
2023-03-26T18:43:51.468Z,48.66
2023-03-26T18:46:56.244Z,48.74
2023-03-26T18:50:01.543Z,48.73
2023-03-26T18:53:09.430Z,48.72
2023-03-26T18:56:28.855Z,48.68
2023-03-26T18:59:41.366Z,48.77
2023-03-26T19:02:50.787Z,48.75
2023-03-26T19:05:57.376Z,48.95
2023-03-26T19:09:23.902Z,48.88
2023-03-26T19:12:36.581Z,49.03
2023-03-26T19:15:43.266Z,49.25
2023-03-26T19:18:50.031Z,49.42
2023-03-26T19:21:57.346Z,49.68
2023-03-26T19:25:05.977Z,49.71
2023-03-26T19:28:40.113Z,50.14
2023-03-26T19:31:44.277Z,50.66
2023-03-26T19:34:49.684Z,50.68
2023-03-26T19:37:57.596Z,51.03
2023-03-26T19:41:02.943Z,51.34
2023-03-26T19:44:28.318Z,52.02
2023-03-26T19:47:52.188Z,51.98
2023-03-26T19:51:06.174Z,52.41
2023-03-26T19:54:17.806Z,53.07
2023-03-26T19:57:24.339Z,53.12
2023-03-26T20:00:29.808Z,55.06
2023-03-26T20:03:45.075Z,55.00
2023-03-26T20:06:50.710Z,55.22
2023-03-26T20:09:56.938Z,56.19
2023-03-26T20:13:01.970Z,56.47
2023-03-26T20:16:34.857Z,59.25
2023-03-26T20:19:39.857Z,61.38
2023-03-26T20:22:47.676Z,65.53
2023-03-26T20:25:55.069Z,65.80
2023-03-26T20:29:00.361Z,69.51
2023-03-26T20:32:06.972Z,71.58
2023-03-26T20:35:16.850Z,76.44
2023-03-26T20:38:24.037Z,75.02
2023-03-26T20:41:34.796Z,77.49
2023-03-26T20:44:37.785Z,77.75
2023-03-26T20:47:42.685Z,82.02
2023-03-26T20:50:50.845Z,77.56
2023-03-26T20:53:55.555Z,85.32
2023-03-26T20:56:58.477Z,86.96
2023-03-26T21:00:01.853Z,87.74
2023-03-26T21:03:05.486Z,85.23
2023-03-26T21:06:15.459Z,86.80
2023-03-26T21:09:24.125Z,88.26
2023-03-26T21:12:33.592Z,84.58
2023-03-26T21:15:37.612Z,86.42
2023-03-26T21:18:42.001Z,85.51
2023-03-26T21:22:10.990Z,82.25
2023-03-26T21:25:23.087Z,83.20
2023-03-26T21:28:39.726Z,83.86
2023-03-26T21:31:48.422Z,83.46
2023-03-26T21:34:58.103Z,82.36
2023-03-26T21:38:05.006Z,82.51
2023-03-26T21:41:08.374Z,83.09
2023-03-26T21:44:11.914Z,84.20
2023-03-26T21:47:15.075Z,84.31
2023-03-26T21:50:21.888Z,83.32
2023-03-26T21:53:25.372Z,83.65
2023-03-26T21:56:46.267Z,84.54
2023-03-26T22:00:15.161Z,86.99
2023-03-26T22:03:36.605Z,86.21
2023-03-26T22:07:01.205Z,84.08
2023-03-26T22:10:05.282Z,84.16
2023-03-26T22:13:08.237Z,84.86
2023-03-26T22:16:11.946Z,84.40
2023-03-26T22:19:15.004Z,84.77
2023-03-26T22:22:18.317Z,84.08
2023-03-26T22:25:23.005Z,85.47
2023-03-26T22:28:27.282Z,84.87
2023-03-26T22:31:30.106Z,83.80
2023-03-26T22:34:35.264Z,85.63
2023-03-26T22:37:38.299Z,85.61
2023-03-26T22:40:41.591Z,85.01
2023-03-26T22:43:46.373Z,84.86
2023-03-26T22:46:51.823Z,85.52
2023-03-26T22:49:54.733Z,86.34
2023-03-26T22:52:57.816Z,85.40
2023-03-26T22:56:01.158Z,85.03
2023-03-26T22:59:04.491Z,85.69
2023-03-26T23:02:09.990Z,85.12
2023-03-26T23:05:14.723Z,84.32
2023-03-26T23:08:18.024Z,83.75
2023-03-26T23:11:22.350Z,83.45
2023-03-26T23:14:25.436Z,83.87
2023-03-26T23:17:29.259Z,83.80
2023-03-26T23:20:38.078Z,83.76
2023-03-26T23:23:41.895Z,84.02
2023-03-26T23:26:50.600Z,84.60
2023-03-26T23:29:55.607Z,84.75
2023-03-26T23:32:58.703Z,83.62
2023-03-26T23:36:07.262Z,83.15
2023-03-26T23:39:11.137Z,83.56
2023-03-26T23:42:29.298Z,83.80
2023-03-26T23:45:33.546Z,83.25
2023-03-26T23:48:37.444Z,83.10
2023-03-26T23:51:40.280Z,82.34
2023-03-26T23:54:43.414Z,82.54
2023-03-26T23:57:46.564Z,82.04
